Time;durP1;ratioP1;P1;durP2;ratioP2;P2;SDS_P1;SDS_P2;PMS_P1;PMS_P2;Temp;Humidity;BMP_temperature;BMP_pressure;BME280_temperature;BME280_humidity;BME280_pressure;Samples;Min_cycle;Max_cycle;Signal;HPM_P1;HPM_P2
2022/03/15 00:00:42;;;;;;;19.60;6.45;;;;;;;-1.54;100.00;101590.81;5049004;28;20066;-82
2022/03/15 00:03:07;;;;;;;14.15;4.20;;;;;;;-1.58;100.00;101584.00;5050672;28;20124;-81
2022/03/15 00:05:34;;;;;;;14.60;5.25;;;;;;;-1.56;100.00;101596.19;5059298;28;20028;-81
2022/03/15 00:07:59;;;;;;;21.83;6.68;;;;;;;-1.61;100.00;101587.66;5041168;28;20028;-82
2022/03/15 00:10:26;;;;;;;18.60;7.05;;;;;;;-1.76;100.00;101567.31;5042750;28;20032;-81
2022/03/15 00:12:52;;;;;;;21.10;7.25;;;;;;;-1.70;100.00;101593.34;5021642;28;21907;-81
2022/03/15 00:15:18;;;;;;;17.75;6.03;;;;;;;-1.73;100.00;101596.16;5059263;28;20162;-81
2022/03/15 00:17:44;;;;;;;17.95;5.88;;;;;;;-1.80;100.00;101568.38;5024385;28;20474;-82
2022/03/15 00:20:14;;;;;;;13.38;5.68;;;;;;;-1.59;100.00;101582.28;5043689;28;20036;-81
2022/03/15 00:22:41;;;;;;;18.40;6.43;;;;;;;-1.51;100.00;101574.81;5040387;28;20543;-82
2022/03/15 00:25:10;;;;;;;10.18;4.88;;;;;;;-1.53;100.00;101566.16;5031390;28;20477;-81
2022/03/15 00:27:36;;;;;;;19.77;6.72;;;;;;;-1.26;100.00;101582.34;5060419;28;20102;-81
2022/03/15 00:30:05;;;;;;;27.73;9.50;;;;;;;-1.17;100.00;101576.56;5026692;28;20058;-81
2022/03/15 00:32:31;;;;;;;27.27;9.10;;;;;;;-1.03;100.00;101567.97;5057796;28;20043;-81
2022/03/15 00:34:57;;;;;;;28.23;8.00;;;;;;;-0.98;100.00;101557.13;5079191;28;20032;-80
2022/03/15 00:37:23;;;;;;;21.40;8.02;;;;;;;-0.82;100.00;101567.72;5042529;28;20052;-81
2022/03/15 00:39:50;;;;;;;16.90;7.55;;;;;;;-0.75;100.00;101561.19;5043185;28;20470;-81
2022/03/15 00:42:16;;;;;;;25.35;8.75;;;;;;;-0.71;100.00;101546.91;5047027;28;20229;-81
2022/03/15 00:44:41;;;;;;;21.85;7.75;;;;;;;-0.54;100.00;101546.78;5060842;28;20032;-82
2022/03/15 00:47:08;;;;;;;10.45;4.25;;;;;;;-0.51;100.00;101546.63;5061210;28;20032;-82
2022/03/15 00:49:34;;;;;;;16.50;7.40;;;;;;;-0.35;100.00;101554.53;5025592;28;20044;-81
2022/03/15 00:52:00;;;;;;;18.67;7.65;;;;;;;-0.32;100.00;101543.84;5018675;28;20040;-81
2022/03/15 00:54:26;;;;;;;13.68;5.47;;;;;;;-0.20;100.00;101547.56;5037955;28;20029;-81
2022/03/15 00:56:52;;;;;;;16.90;5.65;;;;;;;-0.28;100.00;101531.28;5044143;28;20162;-80
2022/03/15 00:59:19;;;;;;;14.82;6.10;;;;;;;-0.21;100.00;101535.28;5017195;28;20039;-81
2022/03/15 01:01:46;;;;;;;17.38;5.72;;;;;;;-0.15;100.00;101553.44;5042088;28;20059;-81
2022/03/15 01:04:12;;;;;;;13.98;5.32;;;;;;;-0.18;100.00;101528.97;5060308;28;20146;-82
2022/03/15 01:06:38;;;;;;;7.65;4.90;;;;;;;-0.03;100.00;101550.09;5044724;28;20033;-81
2022/03/15 01:09:05;;;;;;;11.98;5.38;;;;;;;0.02;100.00;101530.47;5065296;28;20020;-81
2022/03/15 01:11:30;;;;;;;7.13;2.95;;;;;;;0.21;100.00;101544.31;5065884;28;20028;-81
2022/03/15 01:13:56;;;;;;;9.35;4.43;;;;;;;0.41;100.00;101546.63;5031502;28;20036;-81
2022/03/15 01:16:22;;;;;;;6.85;2.92;;;;;;;0.63;100.00;101530.31;5065402;28;20032;-82
2022/03/15 01:18:48;;;;;;;9.55;3.83;;;;;;;0.77;100.00;101534.78;5047813;28;20044;-83
2022/03/15 01:21:14;;;;;;;10.40;3.22;;;;;;;0.90;100.00;101532.25;5027008;28;20039;-81
2022/03/15 01:23:40;;;;;;;6.53;3.67;;;;;;;0.99;100.00;101533.47;5055365;28;20021;-81
2022/03/15 01:26:06;;;;;;;9.98;3.55;;;;;;;0.94;100.00;101528.47;5056309;28;20397;-82
2022/03/15 01:28:32;;;;;;;8.07;3.20;;;;;;;0.82;100.00;101508.03;5040611;28;20389;-82
2022/03/15 01:30:58;;;;;;;9.82;4.70;;;;;;;0.74;100.00;101505.88;5026786;28;20131;-80
2022/03/15 01:33:24;;;;;;;9.68;3.83;;;;;;;0.75;100.00;101509.38;5029104;28;20039;-80
2022/03/15 01:35:49;;;;;;;9.32;3.78;;;;;;;0.69;100.00;101505.31;5060833;28;20036;-81
2022/03/15 01:38:15;;;;;;;10.40;4.40;;;;;;;0.62;100.00;101502.16;5057003;28;20326;-81
2022/03/15 01:40:41;;;;;;;10.68;4.10;;;;;;;0.57;100.00;101488.34;5057782;28;20036;-81
2022/03/15 01:43:07;;;;;;;13.98;4.20;;;;;;;0.58;100.00;101489.19;5025095;28;20071;-81
2022/03/15 01:45:38;;;;;;;8.13;3.08;;;;;;;0.58;100.00;101475.97;5057702;28;20094;-81
2022/03/15 01:48:05;;;;;;;8.73;3.40;;;;;;;0.69;100.00;101459.44;5058095;28;20039;-80
2022/03/15 01:50:31;;;;;;;7.10;2.95;;;;;;;0.96;100.00;101463.03;5056194;28;20044;-82
2022/03/15 01:52:57;;;;;;;7.30;2.92;;;;;;;1.12;100.00;101460.25;5040049;28;20066;-82
2022/03/15 01:55:23;;;;;;;8.68;3.38;;;;;;;1.15;100.00;101454.75;5041474;28;20024;-82
2022/03/15 01:57:49;;;;;;;9.23;3.50;;;;;;;1.17;100.00;101449.38;5056498;28;20519;-82
2022/03/15 02:00:17;;;;;;;10.93;2.83;;;;;;;1.14;100.00;101445.13;5038674;28;20029;-81
2022/03/15 02:02:43;;;;;;;8.70;2.63;;;;;;;1.11;100.00;101440.00;5041135;28;20107;-82
2022/03/15 02:05:10;;;;;;;5.57;2.33;;;;;;;1.01;100.00;101418.56;5042082;28;20029;-82
2022/03/15 02:07:36;;;;;;;7.47;2.97;;;;;;;1.05;100.00;101425.34;5059075;28;20438;-82
2022/03/15 02:10:03;;;;;;;10.20;3.47;;;;;;;1.13;100.00;101429.31;5039801;28;20124;-81
2022/03/15 02:12:29;;;;;;;9.88;2.72;;;;;;;1.12;100.00;101424.97;5040900;28;20113;-81
2022/03/15 02:15:01;;;;;;;5.15;2.88;;;;;;;1.13;100.00;101413.41;5024396;28;21970;-80
2022/03/15 02:17:27;;;;;;;4.90;2.50;;;;;;;1.19;100.00;101418.31;5049277;28;20017;-81
2022/03/15 02:19:53;;;;;;;5.28;2.35;;;;;;;1.19;100.00;101408.59;5041899;28;20474;-82
2022/03/15 02:22:22;;;;;;;8.02;2.83;;;;;;;1.29;100.00;101399.06;5060035;28;20060;-81
2022/03/15 02:24:48;;;;;;;7.88;2.90;;;;;;;1.21;100.00;101401.38;5056908;28;20039;-81
2022/03/15 02:27:14;;;;;;;7.45;3.42;;;;;;;1.30;100.00;101406.09;5047902;28;20120;-81
2022/03/15 02:29:41;;;;;;;6.32;2.88;;;;;;;1.26;100.00;101404.56;5049190;28;20032;-80
2022/03/15 02:32:07;;;;;;;5.75;3.42;;;;;;;1.27;100.00;101410.72;5051196;28;20097;-81
2022/03/15 02:34:33;;;;;;;6.22;2.75;;;;;;;1.21;100.00;101403.19;5035217;28;20034;-81
2022/03/15 02:37:00;;;;;;;9.63;2.90;;;;;;;1.20;100.00;101404.13;5069859;28;20154;-82
2022/03/15 02:39:25;;;;;;;7.35;2.75;;;;;;;1.20;100.00;101401.50;5067507;28;20461;-82
2022/03/15 02:41:51;;;;;;;7.32;2.67;;;;;;;1.19;100.00;101384.75;5073838;28;20035;-81
2022/03/15 02:44:16;;;;;;;4.93;1.67;;;;;;;1.48;100.00;101390.78;5036952;28;20412;-81
2022/03/15 02:46:42;;;;;;;4.20;1.35;;;;;;;1.85;100.00;101379.50;5070228;28;20025;-81
2022/03/15 02:49:11;;;;;;;3.13;1.17;;;;;;;2.15;100.00;101369.44;5037351;28;20064;-81
2022/03/15 02:51:38;;;;;;;11.38;1.63;;;;;;;2.30;100.00;101356.06;5038539;28;20094;-81
2022/03/15 02:54:07;;;;;;;7.88;1.83;;;;;;;2.34;100.00;101328.34;5071214;28;20080;-81
2022/03/15 02:56:34;;;;;;;7.18;1.42;;;;;;;2.61;100.00;101357.38;5071072;28;20043;-82
2022/03/15 02:58:59;;;;;;;9.50;1.70;;;;;;;2.59;100.00;101332.75;5054002;28;20028;-82
2022/03/15 03:01:25;;;;;;;7.18;1.63;;;;;;;2.72;100.00;101344.19;5050958;28;20055;-83
2022/03/15 03:03:53;;;;;;;4.63;1.38;;;;;;;2.74;100.00;101331.66;5038150;28;20044;-82
2022/03/15 03:06:18;;;;;;;2.55;1.30;;;;;;;2.85;100.00;101338.84;5067692;28;20024;-81
2022/03/15 03:08:44;;;;;;;13.27;2.08;;;;;;;2.92;100.00;101342.75;5051904;28;20036;-82
2022/03/15 03:11:10;;;;;;;4.75;1.63;;;;;;;2.95;100.00;101341.69;5035124;28;20037;-82
2022/03/15 03:13:37;;;;;;;3.65;1.48;;;;;;;2.92;100.00;101326.81;5070763;28;20442;-80
2022/03/15 03:16:05;;;;;;;4.20;1.40;;;;;;;3.04;100.00;101331.22;5068409;28;20037;-81
2022/03/15 03:18:34;;;;;;;8.63;1.33;;;;;;;2.92;100.00;101302.06;5065151;28;20028;-81
2022/03/15 03:21:01;;;;;;;5.35;1.48;;;;;;;3.15;100.00;101321.59;5071467;28;20020;-84
2022/03/15 03:23:28;;;;;;;7.85;1.88;;;;;;;3.19;100.00;101325.75;5053423;28;20096;-82
2022/03/15 03:25:56;;;;;;;7.07;1.67;;;;;;;3.25;100.00;101327.94;5036939;28;20474;-81
2022/03/15 03:28:23;;;;;;;4.40;1.40;;;;;;;3.29;100.00;101330.25;5063375;28;20093;-82
2022/03/15 03:30:51;;;;;;;7.88;1.75;;;;;;;3.35;100.00;101328.09;5065525;28;20081;-84
2022/03/15 03:33:19;;;;;;;0.80;0.80;;;;;;;3.45;100.00;101329.09;5032212;28;20366;-83
2022/03/15 03:35:45;;;;;;;4.45;1.52;;;;;;;3.52;100.00;101320.56;5046329;28;20036;-80
2022/03/15 03:38:12;;;;;;;4.50;1.25;;;;;;;3.64;100.00;101323.22;5053915;28;20114;-83
2022/03/15 03:40:37;;;;;;;1.67;0.95;;;;;;;3.63;100.00;101317.06;5051238;28;20032;-83
2022/03/15 03:43:04;;;;;;;1.23;0.95;;;;;;;3.70;100.00;101312.97;5037492;28;20040;-82
2022/03/15 03:45:29;;;;;;;1.52;0.95;;;;;;;3.71;100.00;101311.16;5054138;28;20032;-82
2022/03/15 03:47:55;;;;;;;11.32;3.60;;;;;;;3.89;100.00;101316.84;5049052;28;20047;-83
2022/03/15 03:50:21;;;;;;;2.13;1.40;;;;;;;3.88;100.00;101318.69;5062691;28;20111;-82
2022/03/15 03:52:47;;;;;;;3.45;1.08;;;;;;;3.89;100.00;101307.09;5069173;28;20033;-82
2022/03/15 03:55:12;;;;;;;3.05;1.58;;;;;;;3.89;100.00;101309.75;5053894;28;20016;-82
2022/03/15 03:57:38;;;;;;;4.18;1.13;;;;;;;3.91;100.00;101315.78;5069018;28;20040;-84
2022/03/15 04:00:06;;;;;;;5.40;1.20;;;;;;;3.90;100.00;101313.25;5036588;28;20054;-83
2022/03/15 04:02:32;;;;;;;1.65;0.98;;;;;;;3.91;100.00;101310.47;5066396;28;20069;-82
2022/03/15 04:04:57;;;;;;;1.25;0.80;;;;;;;3.89;100.00;101306.22;5036522;28;20039;-82
2022/03/15 04:07:23;;;;;;;7.75;1.50;;;;;;;3.82;100.00;101302.38;5053052;28;20032;-82
2022/03/15 04:09:49;;;;;;;9.73;1.60;;;;;;;3.81;100.00;101305.97;5065081;28;20099;-82
2022/03/15 04:12:15;;;;;;;9.00;2.30;;;;;;;3.66;100.00;101281.41;5050884;28;20025;-83
2022/03/15 04:14:41;;;;;;;4.43;1.58;;;;;;;3.79;100.00;101308.75;5052240;28;20029;-82
2022/03/15 04:17:07;;;;;;;3.95;1.60;;;;;;;3.74;100.00;101305.59;5039375;28;20519;-83
2022/03/15 04:19:32;;;;;;;11.05;2.08;;;;;;;3.73;100.00;101302.09;5069006;28;20031;-82
2022/03/15 04:21:58;;;;;;;4.13;1.40;;;;;;;3.73;100.00;101314.53;5065173;28;20493;-82
2022/03/15 04:24:25;;;;;;;5.28;1.83;;;;;;;3.71;100.00;101313.84;5051729;28;20135;-82
2022/03/15 04:26:51;;;;;;;5.15;1.92;;;;;;;3.61;100.00;101288.91;5034851;28;20041;-82
2022/03/15 04:29:17;;;;;;;3.80;1.23;;;;;;;3.71;100.00;101311.16;5070337;28;20104;-82
2022/03/15 04:31:43;;;;;;;8.32;1.55;;;;;;;3.62;100.00;101306.53;5051399;28;20028;-81
2022/03/15 04:34:08;;;;;;;4.50;1.30;;;;;;;3.63;100.00;101301.13;5052035;28;20028;-83
2022/03/15 04:36:35;;;;;;;2.58;1.02;;;;;;;3.63;100.00;101293.13;5046713;28;20040;-82
2022/03/15 04:39:02;;;;;;;4.68;1.58;;;;;;;3.46;100.00;101267.81;5027857;28;20125;-83
2022/03/15 04:41:28;;;;;;;2.92;1.65;;;;;;;3.66;100.00;101292.06;5043549;28;20464;-82
2022/03/15 04:43:53;;;;;;;4.07;1.63;;;;;;;3.64;100.00;101280.69;5064766;28;20028;-82
2022/03/15 04:46:20;;;;;;;5.55;1.65;;;;;;;3.67;100.00;101291.91;5069251;28;20024;-82
2022/03/15 04:48:46;;;;;;;3.90;1.50;;;;;;;3.64;100.00;101289.50;5068637;28;20024;-83
2022/03/15 04:51:12;;;;;;;1.60;1.17;;;;;;;3.65;100.00;101283.25;5048848;28;20128;-82
2022/03/15 04:53:37;;;;;;;3.67;1.42;;;;;;;3.68;100.00;101283.00;5050562;28;20086;-82
2022/03/15 04:56:03;;;;;;;3.72;1.85;;;;;;;3.65;100.00;101277.91;5051968;28;20071;-82
2022/03/15 04:58:29;;;;;;;3.50;1.20;;;;;;;3.64;100.00;101273.53;5065908;28;20151;-83
2022/03/15 05:00:54;;;;;;;7.30;1.73;;;;;;;3.68;100.00;101276.84;5051120;28;20080;-82
2022/03/15 05:03:20;;;;;;;3.35;1.40;;;;;;;3.68;100.00;101283.00;5068198;28;20028;-82
2022/03/15 05:05:46;;;;;;;2.95;1.17;;;;;;;3.71;100.00;101277.44;5068688;28;20041;-83
2022/03/15 05:08:12;;;;;;;5.75;1.20;;;;;;;3.69;100.00;101259.91;5067637;28;20028;-84
2022/03/15 05:13:21;;;;;;;4.25;1.30;;;;;;;3.74;100.00;101249.75;5068253;28;20026;-83
2022/03/15 05:15:47;;;;;;;6.82;1.40;;;;;;;3.78;100.00;101248.53;5036419;28;20044;-83
2022/03/15 05:18:13;;;;;;;5.90;1.17;;;;;;;3.77;100.00;101241.53;5063446;28;20036;-84
2022/03/15 05:20:39;;;;;;;12.93;2.70;;;;;;;3.84;100.00;101241.91;5046203;28;20044;-84
2022/03/15 05:23:05;;;;;;;5.22;1.58;;;;;;;3.86;100.00;101232.81;5051333;28;20424;-83
2022/03/15 05:25:30;;;;;;;8.07;2.00;;;;;;;3.81;100.00;101208.41;5054870;28;20429;-84
2022/03/15 05:27:57;;;;;;;8.27;1.67;;;;;;;3.92;100.00;101215.56;5062226;28;20040;-84
2022/03/15 05:30:23;;;;;;;1.40;1.02;;;;;;;3.91;100.00;101198.72;5049356;28;20304;-84
2022/03/15 05:32:49;;;;;;;1.88;1.17;;;;;;;3.92;100.00;101179.16;5069301;28;20038;-84
2022/03/15 05:35:15;;;;;;;8.75;1.55;;;;;;;4.04;100.00;101195.94;5063669;28;20162;-84
2022/03/15 05:37:40;;;;;;;2.80;1.55;;;;;;;4.17;100.00;101195.78;5066267;28;20487;-82
2022/03/15 05:40:07;;;;;;;3.20;1.40;;;;;;;4.24;100.00;101204.16;5068100;28;20028;-82
2022/03/15 05:42:32;;;;;;;5.43;1.42;;;;;;;4.24;100.00;101182.84;5034352;28;20036;-83
2022/03/15 05:44:58;;;;;;;8.10;1.45;;;;;;;4.31;100.00;101195.53;5026937;28;20679;-83
2022/03/15 05:47:24;;;;;;;1.33;0.82;;;;;;;4.35;100.00;101186.31;5043652;28;20037;-83
2022/03/15 05:49:49;;;;;;;4.90;0.90;;;;;;;4.34;100.00;101171.31;5069491;28;20034;-83
2022/03/15 05:52:15;;;;;;;5.40;1.67;;;;;;;4.42;100.00;101181.34;5051887;28;20028;-83
2022/03/15 05:54:40;;;;;;;5.88;2.08;;;;;;;4.43;100.00;101177.72;5035708;28;20039;-83
2022/03/15 05:57:06;;;;;;;6.13;1.58;;;;;;;4.46;100.00;101181.94;5033354;28;20028;-84
2022/03/15 05:59:32;;;;;;;5.43;1.50;;;;;;;4.32;100.00;101167.09;5051923;28;20104;-82
2022/03/15 06:01:57;;;;;;;2.33;1.48;;;;;;;4.36;100.00;101177.34;5051922;28;20036;-83
2022/03/15 06:04:26;;;;;;;2.58;1.38;;;;;;;4.34;100.00;101184.63;5051464;28;20425;-83
2022/03/15 06:06:55;;;;;;;6.00;1.30;;;;;;;4.25;100.00;101174.72;5063698;28;20073;-82
2022/03/15 06:09:24;;;;;;;2.95;1.05;;;;;;;4.22;100.00;101193.63;5051892;28;20070;-83
2022/03/15 06:11:51;;;;;;;3.70;1.35;;;;;;;4.14;100.00;101188.91;5038489;28;20032;-82
2022/03/15 06:14:20;;;;;;;4.75;1.33;;;;;;;4.01;100.00;101190.84;5070583;28;20020;-82
2022/03/15 06:16:46;;;;;;;10.38;1.92;;;;;;;3.88;100.00;101198.97;5072338;28;20025;-82
2022/03/15 06:19:12;;;;;;;2.80;1.20;;;;;;;3.72;100.00;101199.31;5071958;28;20024;-82
2022/03/15 06:21:39;;;;;;;1.55;0.70;;;;;;;3.73;100.00;101200.16;5071505;28;20028;-83
2022/03/15 06:24:06;;;;;;;7.75;1.30;;;;;;;3.60;100.00;101180.81;5072427;28;20035;-82
2022/03/15 06:26:33;;;;;;;5.10;1.60;;;;;;;3.82;100.00;101211.91;5068589;28;20024;-82
2022/03/15 06:28:59;;;;;;;9.52;1.10;;;;;;;3.88;100.00;101204.28;5071526;28;22091;-82
2022/03/15 06:31:27;;;;;;;3.40;1.30;;;;;;;3.86;100.00;101200.06;5071631;28;20059;-83
2022/03/15 06:33:52;;;;;;;2.20;0.77;;;;;;;3.56;100.00;101161.63;5070757;28;20086;-82
2022/03/15 06:36:18;;;;;;;2.33;1.40;;;;;;;3.74;100.00;101185.91;5072328;28;20024;-83
2022/03/15 06:38:44;;;;;;;4.47;1.10;;;;;;;3.80;100.00;101198.72;5071937;28;20462;-83
2022/03/15 06:41:11;;;;;;;2.65;1.10;;;;;;;3.87;100.00;101197.28;5055335;28;20033;-83
2022/03/15 06:43:39;;;;;;;3.78;1.10;;;;;;;3.88;100.00;101185.66;5054409;28;20031;-83
2022/03/15 06:46:06;;;;;;;3.47;1.15;;;;;;;3.93;100.00;101190.63;5072888;28;20058;-84
2022/03/15 06:48:31;;;;;;;0.90;0.80;;;;;;;3.92;100.00;101170.31;5066094;28;20051;-82
2022/03/15 06:50:57;;;;;;;4.53;1.40;;;;;;;3.95;100.00;101183.38;5062334;28;20033;-82
2022/03/15 06:53:23;;;;;;;5.10;1.30;;;;;;;3.94;100.00;101171.91;5052219;28;20024;-83
2022/03/15 06:55:48;;;;;;;3.42;1.98;;;;;;;4.04;100.00;101169.31;5053413;28;20036;-83
2022/03/15 06:58:14;;;;;;;3.35;1.45;;;;;;;4.02;100.00;101165.09;5065154;28;20025;-83
2022/03/15 07:00:40;;;;;;;4.75;2.53;;;;;;;4.03;100.00;101159.66;5054942;28;20042;-82
2022/03/15 07:03:05;;;;;;;9.50;3.90;;;;;;;4.09;100.00;101164.47;5054795;28;20029;-84
2022/03/15 07:05:31;;;;;;;13.77;2.58;;;;;;;4.14;100.00;101162.28;5070027;28;20016;-82
2022/03/15 07:07:57;;;;;;;4.28;1.83;;;;;;;4.13;100.00;101143.81;5054237;28;20028;-82
2022/03/15 07:10:22;;;;;;;2.85;1.23;;;;;;;4.32;100.00;101149.31;5051238;28;20044;-82
2022/03/15 07:12:48;;;;;;;6.50;1.92;;;;;;;4.50;100.00;101157.59;5052744;28;20310;-82
2022/03/15 07:15:14;;;;;;;2.90;1.35;;;;;;;4.51;100.00;101143.31;5036560;28;20476;-83
2022/03/15 07:17:56;;;;;;;2.85;0.90;;;;;;;4.53;100.00;101132.53;5035489;28;20033;-83
2022/03/15 07:20:24;;;;;;;3.38;1.38;;;;;;;4.65;100.00;101144.81;5069685;28;20366;-84
2022/03/15 07:22:50;;;;;;;7.57;2.50;;;;;;;4.70;100.00;101144.44;5053197;28;20477;-82
2022/03/15 07:25:16;;;;;;;3.33;1.10;;;;;;;4.79;100.00;101146.31;5054640;28;20488;-83
2022/03/15 07:27:42;;;;;;;8.50;1.63;;;;;;;4.87;100.00;101149.22;5055644;28;20412;-84
2022/03/15 07:30:09;;;;;;;3.70;1.48;;;;;;;4.93;100.00;101145.19;5057157;28;20020;-83
2022/03/15 07:32:35;;;;;;;4.90;1.25;;;;;;;4.88;100.00;101124.25;5073095;28;20070;-83
2022/03/15 07:35:01;;;;;;;5.68;1.27;;;;;;;4.99;100.00;101124.16;5073445;28;20036;-83
2022/03/15 07:37:29;;;;;;;4.10;1.35;;;;;;;5.08;100.00;101135.88;5050539;28;20041;-83
2022/03/15 07:39:55;;;;;;;4.53;1.17;;;;;;;5.17;100.00;101134.25;5041949;28;20174;-84
2022/03/15 07:42:23;;;;;;;3.58;1.25;;;;;;;5.20;100.00;101129.47;5065105;28;20449;-82
2022/03/15 07:44:49;;;;;;;6.95;1.35;;;;;;;5.28;100.00;101127.00;5069410;28;20043;-83
2022/03/15 07:47:15;;;;;;;1.67;0.85;;;;;;;5.32;100.00;101132.94;5068807;28;20127;-82
2022/03/15 07:49:41;;;;;;;5.15;1.40;;;;;;;5.30;100.00;101118.88;5066164;28;20448;-82
2022/03/15 07:52:07;;;;;;;8.40;1.67;;;;;;;5.44;100.00;101131.00;5069777;28;20492;-81
2022/03/15 07:54:35;;;;;;;5.65;1.38;;;;;;;5.54;100.00;101134.56;5071236;28;20043;-82
2022/03/15 07:57:02;;;;;;;5.25;1.35;;;;;;;5.60;100.00;101128.69;5044135;28;20469;-82
2022/03/15 07:59:28;;;;;;;1.25;0.88;;;;;;;5.67;100.00;101131.69;5076407;28;20169;-83
2022/03/15 08:01:53;;;;;;;3.58;1.27;;;;;;;5.79;99.09;101133.25;5072349;28;20036;-84
2022/03/15 08:04:19;;;;;;;5.30;1.08;;;;;;;5.90;98.49;101130.50;5052287;28;20066;-82
2022/03/15 08:06:44;;;;;;;4.22;1.67;;;;;;;5.98;97.88;101131.66;5053029;28;20478;-84
2022/03/15 08:09:14;;;;;;;1.02;0.93;;;;;;;6.05;97.86;101133.63;5068820;28;20033;-82
2022/03/15 08:11:45;;;;;;;4.70;1.02;;;;;;;6.04;97.34;101129.28;5052457;28;20482;-83
2022/03/15 08:14:11;;;;;;;2.15;1.00;;;;;;;6.10;97.51;101134.06;5072749;28;20055;-84
2022/03/15 08:16:37;;;;;;;3.75;1.30;;;;;;;6.03;97.37;101116.91;5036161;28;20599;-83
2022/03/15 08:19:04;;;;;;;1.15;0.68;;;;;;;6.01;96.90;101102.03;5062806;28;20692;-85
2022/03/15 08:21:31;;;;;;;3.38;1.55;;;;;;;6.15;97.15;101120.31;5070375;28;20493;-83
2022/03/15 08:24:00;;;;;;;2.55;1.00;;;;;;;6.23;96.68;101127.63;5072148;28;20056;-83
2022/03/15 08:26:25;;;;;;;6.35;1.70;;;;;;;6.15;96.29;101113.13;5048628;28;20107;-83
2022/03/15 08:28:52;;;;;;;4.57;1.48;;;;;;;6.35;95.69;101127.38;5034829;28;20040;-86
2022/03/15 08:31:20;;;;;;;3.50;1.55;;;;;;;6.28;94.99;101109.38;5055386;28;20482;-82
2022/03/15 08:33:46;;;;;;;5.75;1.98;;;;;;;6.39;95.04;101119.91;5074813;28;20032;-84
2022/03/15 08:36:15;;;;;;;2.83;1.20;;;;;;;6.38;95.00;101103.03;5054705;28;20229;-84
2022/03/15 08:38:43;;;;;;;10.35;2.95;;;;;;;6.47;94.86;101120.06;5070952;28;20532;-81
2022/03/15 08:41:09;;;;;;;1.73;1.10;;;;;;;6.49;94.47;101117.25;5056665;28;20036;-84
2022/03/15 08:43:35;;;;;;;1.90;1.00;;;;;;;6.59;93.71;101121.63;5058218;28;20033;-83
2022/03/15 08:46:00;;;;;;;17.05;3.85;;;;;;;6.65;93.63;101119.38;5054647;28;20036;-82
2022/03/15 08:48:26;;;;;;;12.90;2.33;;;;;;;6.63;93.69;101108.81;5052063;28;20369;-83
2022/03/15 08:50:52;;;;;;;25.05;2.88;;;;;;;6.71;93.33;101116.13;5033065;28;20055;-84
2022/03/15 08:53:19;;;;;;;26.63;2.80;;;;;;;6.71;93.58;101105.41;5048190;28;20489;-83
2022/03/15 08:55:44;;;;;;;15.15;3.25;;;;;;;6.79;93.25;101111.72;5047127;28;20163;-85
2022/03/15 08:58:12;;;;;;;17.40;2.05;;;;;;;6.86;92.58;101101.34;5069354;28;20463;-82
2022/03/15 09:00:38;;;;;;;5.00;1.52;;;;;;;6.93;92.58;101098.91;5047998;28;20032;-83
2022/03/15 09:03:03;;;;;;;2.80;1.63;;;;;;;7.00;91.96;101095.53;5048456;28;20089;-82
2022/03/15 09:05:29;;;;;;;14.60;3.38;;;;;;;7.07;92.08;101089.63;5049061;28;20044;-82
2022/03/15 09:07:55;;;;;;;5.45;1.90;;;;;;;7.16;91.20;101080.72;5036159;28;20029;-82
2022/03/15 09:10:22;;;;;;;2.20;0.88;;;;;;;7.27;90.31;101099.25;5053296;28;20032;-84
2022/03/15 09:12:50;;;;;;;1.23;0.82;;;;;;;7.32;90.01;101091.63;5067947;28;20753;-82
2022/03/15 09:15:16;;;;;;;3.72;1.13;;;;;;;7.07;89.12;101030.78;5041201;28;20047;-86
2022/03/15 09:17:42;;;;;;;4.03;1.55;;;;;;;7.45;89.12;101076.09;5063003;28;20028;-84
2022/03/15 09:20:09;;;;;;;6.88;1.08;;;;;;;7.46;89.66;101067.09;5034326;28;20035;-83
2022/03/15 09:22:35;;;;;;;6.68;1.40;;;;;;;7.61;89.34;101080.78;5062839;28;20644;-84
2022/03/15 09:25:04;;;;;;;3.22;1.20;;;;;;;7.52;88.50;101051.44;5061461;28;20031;-84
2022/03/15 09:27:30;;;;;;;3.92;1.30;;;;;;;7.73;88.88;101076.09;5022506;28;20036;-83
2022/03/15 09:29:55;;;;;;;6.60;1.65;;;;;;;7.76;87.80;101061.56;5069779;28;20040;-82
2022/03/15 09:32:21;;;;;;;5.13;1.85;;;;;;;7.89;87.81;101086.16;5060538;28;20044;-83
2022/03/15 09:34:47;;;;;;;5.30;1.27;;;;;;;7.89;87.36;101070.09;5050811;28;20126;-82
2022/03/15 09:37:13;;;;;;;5.50;1.73;;;;;;;8.00;87.52;101079.75;5069328;28;20522;-83
2022/03/15 09:39:39;;;;;;;2.97;1.38;;;;;;;8.15;86.81;101079.06;5031321;28;20051;-81
2022/03/15 09:42:08;;;;;;;8.90;2.28;;;;;;;8.28;86.11;101059.94;5035236;28;20059;-82
2022/03/15 09:44:40;;;;;;;6.63;1.63;;;;;;;8.52;85.11;101067.38;5051808;28;20036;-85
2022/03/15 09:47:10;;;;;;;8.00;1.73;;;;;;;8.67;84.10;101064.13;5051055;28;20359;-84
2022/03/15 09:49:45;;;;;;;8.65;2.83;;;;;;;8.68;83.35;101049.72;5064544;28;20037;-86
2022/03/15 09:52:11;;;;;;;3.50;1.20;;;;;;;8.80;82.88;101045.78;5044572;28;20119;-85
2022/03/15 09:54:38;;;;;;;4.80;1.42;;;;;;;9.10;82.07;101059.72;5068932;28;20048;-85
2022/03/15 09:57:05;;;;;;;1.77;1.20;;;;;;;9.27;81.03;101047.25;5069616;28;20122;-84
2022/03/15 09:59:32;;;;;;;6.57;1.38;;;;;;;9.33;79.80;101030.50;5052408;28;20401;-86
2022/03/15 10:01:59;;;;;;;2.22;1.08;;;;;;;9.59;79.21;101033.97;5056836;28;20155;-84
2022/03/15 10:04:26;;;;;;;6.38;1.60;;;;;;;9.97;78.27;101041.63;5055164;28;20047;-84
2022/03/15 10:06:52;;;;;;;3.20;1.02;;;;;;;10.17;76.98;101034.94;5058051;28;20037;-85
2022/03/15 10:09:19;;;;;;;3.13;1.70;;;;;;;10.37;76.00;101024.72;5069677;28;20039;-84
2022/03/15 10:11:45;;;;;;;4.80;1.27;;;;;;;10.59;74.60;101022.38;5053120;28;20028;-85
2022/03/15 10:14:11;;;;;;;3.03;1.00;;;;;;;10.92;72.87;101028.53;5052799;28;20489;-84
2022/03/15 10:16:42;;;;;;;1.80;1.45;;;;;;;11.32;72.95;101037.50;5069137;28;20102;-84
2022/03/15 10:19:09;;;;;;;2.70;1.02;;;;;;;11.90;69.26;101038.94;5070767;28;20059;-84
2022/03/15 10:21:49;;;;;;;5.45;1.40;;;;;;;11.97;68.88;101033.69;5052879;28;20056;-84
2022/03/15 10:24:20;;;;;;;3.78;1.17;;;;;;;11.74;68.10;101037.13;5052403;28;20051;-83
2022/03/15 10:26:47;;;;;;;3.35;1.02;;;;;;;11.30;69.07;101017.97;5035412;28;20119;-84
2022/03/15 10:29:14;;;;;;;1.42;1.00;;;;;;;11.19;70.04;101012.00;5068933;28;20032;-84
2022/03/15 10:31:41;;;;;;;2.75;0.95;;;;;;;12.88;63.91;100981.47;5036483;28;20497;-85
2022/03/15 10:34:08;;;;;;;3.35;1.50;;;;;;;13.26;61.60;101018.31;5069093;28;20036;-84
2022/03/15 10:36:39;;;;;;;3.55;1.10;;;;;;;12.63;63.17;100993.56;5052424;28;20047;-84
2022/03/15 10:39:07;;;;;;;4.40;1.73;;;;;;;12.51;64.73;101012.03;5032702;28;20103;-84
2022/03/15 10:41:42;;;;;;;5.03;1.90;;;;;;;12.51;65.01;101023.66;5051528;28;20870;-85
2022/03/15 10:44:19;;;;;;;2.25;1.15;;;;;;;12.68;63.56;101015.44;5069462;28;20044;-85
2022/03/15 10:46:56;;;;;;;9.18;2.40;;;;;;;12.68;64.68;101007.34;5069159;28;20047;-83
2022/03/15 10:49:22;;;;;;;4.13;1.25;;;;;;;12.53;64.44;100993.81;5067567;28;20055;-83
2022/03/15 10:51:47;;;;;;;1.33;0.90;;;;;;;12.49;64.70;101003.28;5069563;28;20060;-84
2022/03/15 10:54:15;;;;;;;2.95;0.90;;;;;;;12.44;64.72;101011.09;5057707;28;20078;-86
2022/03/15 10:56:40;;;;;;;4.80;1.90;;;;;;;12.34;65.13;101007.81;5073088;28;20028;-83
2022/03/15 10:59:06;;;;;;;1.90;1.02;;;;;;;12.31;65.16;100980.19;5069224;28;20059;-86
2022/03/15 11:01:38;;;;;;;6.90;1.42;;;;;;;12.99;63.43;100999.06;5052707;28;20032;-85
2022/03/15 11:04:06;;;;;;;11.48;2.03;;;;;;;14.49;57.47;100982.25;5072177;28;20037;-82
2022/03/15 11:06:38;;;;;;;6.90;1.23;;;;;;;14.29;57.55;100998.34;5072595;28;20051;-86
2022/03/15 11:09:24;;;;;;;4.18;1.70;;;;;;;13.93;59.59;100993.81;5056345;28;20081;-84
2022/03/15 11:11:53;;;;;;;2.88;1.15;;;;;;;13.61;60.09;101000.53;5053319;28;20096;-85
2022/03/15 11:14:39;;;;;;;4.85;1.20;;;;;;;13.07;62.38;101007.09;5071839;28;20035;-85
2022/03/15 11:17:15;;;;;;;8.43;1.63;;;;;;;12.66;64.42;100977.84;5065035;28;20500;-84
2022/03/15 11:19:50;;;;;;;2.88;1.35;;;;;;;12.37;65.07;100980.47;5054875;28;20086;-83
2022/03/15 11:22:20;;;;;;;3.70;1.10;;;;;;;12.01;66.90;100992.75;5049819;28;20370;-84
2022/03/15 11:25:13;;;;;;;3.90;1.50;;;;;;;11.63;67.84;100975.59;5038930;28;20045;-85